sensor_id;sensor_type;location;lat;lon;timestamp;temperature;humidity
31046;DHT22;17711;54.018;9.300;2023-04-15T00:00:02;9.80;99.90
31046;DHT22;17711;54.018;9.300;2023-04-15T00:03:03;9.90;99.90
31046;DHT22;17711;54.018;9.300;2023-04-15T00:06:09;10.00;99.90
31046;DHT22;17711;54.018;9.300;2023-04-15T00:09:12;10.10;99.90
31046;DHT22;17711;54.018;9.300;2023-04-15T00:12:27;10.10;99.90
31046;DHT22;17711;54.018;9.300;2023-04-15T00:15:31;10.20;99.90
31046;DHT22;17711;54.018;9.300;2023-04-15T00:18:35;10.20;99.90
31046;DHT22;17711;54.018;9.300;2023-04-15T00:21:25;10.30;99.90
31046;DHT22;17711;54.018;9.300;2023-04-15T00:24:18;10.20;99.90
31046;DHT22;17711;54.018;9.300;2023-04-15T00:26:47;10.20;99.90
31046;DHT22;17711;54.018;9.300;2023-04-15T00:29:17;10.20;99.90
31046;DHT22;17711;54.018;9.300;2023-04-15T00:31:48;10.20;99.90
31046;DHT22;17711;54.018;9.300;2023-04-15T00:34:29;10.30;99.90
31046;DHT22;17711;54.018;9.300;2023-04-15T00:37:41;10.20;99.90
31046;DHT22;17711;54.018;9.300;2023-04-15T00:40:56;10.20;99.90
31046;DHT22;17711;54.018;9.300;2023-04-15T00:43:53;10.30;99.90
31046;DHT22;17711;54.018;9.300;2023-04-15T00:47:12;10.20;99.90
31046;DHT22;17711;54.018;9.300;2023-04-15T00:50:12;10.30;99.90
31046;DHT22;17711;54.018;9.300;2023-04-15T00:53:13;10.20;99.90
31046;DHT22;17711;54.018;9.300;2023-04-15T00:56:13;10.30;99.90
31046;DHT22;17711;54.018;9.300;2023-04-15T00:59:30;10.20;99.90
31046;DHT22;17711;54.018;9.300;2023-04-15T01:02:32;10.20;99.90
31046;DHT22;17711;54.018;9.300;2023-04-15T01:05:50;10.20;99.90
31046;DHT22;17711;54.018;9.300;2023-04-15T01:08:51;10.30;99.90
31046;DHT22;17711;54.018;9.300;2023-04-15T01:11:51;10.30;99.90
31046;DHT22;17711;54.018;9.300;2023-04-15T01:14:51;10.20;99.90
31046;DHT22;17711;54.018;9.300;2023-04-15T01:18:14;10.30;99.90
31046;DHT22;17711;54.018;9.300;2023-04-15T01:21:14;10.20;99.90
31046;DHT22;17711;54.018;9.300;2023-04-15T01:24:28;10.20;99.90
31046;DHT22;17711;54.018;9.300;2023-04-15T01:27:30;10.20;99.90
31046;DHT22;17711;54.018;9.300;2023-04-15T01:30:30;10.30;99.90
31046;DHT22;17711;54.018;9.300;2023-04-15T01:33:32;10.20;99.90
31046;DHT22;17711;54.018;9.300;2023-04-15T01:36:43;10.20;99.90
31046;DHT22;17711;54.018;9.300;2023-04-15T01:39:44;10.20;99.90
31046;DHT22;17711;54.018;9.300;2023-04-15T01:43:02;10.20;99.90
31046;DHT22;17711;54.018;9.300;2023-04-15T01:46:00;10.20;99.90
31046;DHT22;17711;54.018;9.300;2023-04-15T01:49:05;10.10;99.90
31046;DHT22;17711;54.018;9.300;2023-04-15T01:52:04;10.10;99.90
31046;DHT22;17711;54.018;9.300;2023-04-15T01:55:16;10.10;99.90
31046;DHT22;17711;54.018;9.300;2023-04-15T01:58:20;10.00;99.90
31046;DHT22;17711;54.018;9.300;2023-04-15T02:01:27;10.10;99.90
31046;DHT22;17711;54.018;9.300;2023-04-15T02:04:29;10.10;99.90
31046;DHT22;17711;54.018;9.300;2023-04-15T02:07:29;10.00;99.90
31046;DHT22;17711;54.018;9.300;2023-04-15T02:10:36;9.90;99.90
31046;DHT22;17711;54.018;9.300;2023-04-15T02:14:04;9.90;99.90
31046;DHT22;17711;54.018;9.300;2023-04-15T02:17:08;9.90;99.90
31046;DHT22;17711;54.018;9.300;2023-04-15T02:20:22;10.00;99.90
31046;DHT22;17711;54.018;9.300;2023-04-15T02:23:23;9.90;99.90
31046;DHT22;17711;54.018;9.300;2023-04-15T02:26:23;9.90;99.90
31046;DHT22;17711;54.018;9.300;2023-04-15T02:29:31;9.90;99.90
31046;DHT22;17711;54.018;9.300;2023-04-15T02:32:46;9.90;99.90
31046;DHT22;17711;54.018;9.300;2023-04-15T02:35:46;9.90;99.90
31046;DHT22;17711;54.018;9.300;2023-04-15T02:38:50;10.00;99.90
31046;DHT22;17711;54.018;9.300;2023-04-15T02:41:45;10.00;99.90
31046;DHT22;17711;54.018;9.300;2023-04-15T02:45:12;10.00;99.90
31046;DHT22;17711;54.018;9.300;2023-04-15T02:48:15;9.90;99.90
31046;DHT22;17711;54.018;9.300;2023-04-15T02:51:34;10.00;99.90
31046;DHT22;17711;54.018;9.300;2023-04-15T02:54:35;10.00;99.90
31046;DHT22;17711;54.018;9.300;2023-04-15T02:57:50;10.00;99.90
31046;DHT22;17711;54.018;9.300;2023-04-15T03:00:55;10.10;99.90
31046;DHT22;17711;54.018;9.300;2023-04-15T03:03:59;10.00;99.90
31046;DHT22;17711;54.018;9.300;2023-04-15T03:07:01;10.00;99.90
31046;DHT22;17711;54.018;9.300;2023-04-15T03:10:15;10.00;99.90
31046;DHT22;17711;54.018;9.300;2023-04-15T03:13:11;10.10;99.90
31046;DHT22;17711;54.018;9.300;2023-04-15T03:16:28;10.10;99.90
31046;DHT22;17711;54.018;9.300;2023-04-15T03:19:28;10.10;99.90
31046;DHT22;17711;54.018;9.300;2023-04-15T03:22:43;10.10;99.90
31046;DHT22;17711;54.018;9.300;2023-04-15T03:25:38;10.10;99.90
31046;DHT22;17711;54.018;9.300;2023-04-15T03:28:50;10.00;99.90
31046;DHT22;17711;54.018;9.300;2023-04-15T03:31:59;10.00;99.90
31046;DHT22;17711;54.018;9.300;2023-04-15T03:35:13;10.00;99.90
31046;DHT22;17711;54.018;9.300;2023-04-15T03:38:16;10.00;99.90
31046;DHT22;17711;54.018;9.300;2023-04-15T03:41:20;10.00;99.90
31046;DHT22;17711;54.018;9.300;2023-04-15T03:44:33;10.00;99.90
31046;DHT22;17711;54.018;9.300;2023-04-15T03:47:58;10.00;99.90
31046;DHT22;17711;54.018;9.300;2023-04-15T03:51:06;10.00;99.90
31046;DHT22;17711;54.018;9.300;2023-04-15T03:54:14;10.00;99.90
31046;DHT22;17711;54.018;9.300;2023-04-15T03:57:32;10.00;99.90
31046;DHT22;17711;54.018;9.300;2023-04-15T04:00:32;10.00;99.90
31046;DHT22;17711;54.018;9.300;2023-04-15T04:03:44;10.00;99.90
31046;DHT22;17711;54.018;9.300;2023-04-15T04:06:40;10.00;99.90
31046;DHT22;17711;54.018;9.300;2023-04-15T04:09:58;10.00;99.90
31046;DHT22;17711;54.018;9.300;2023-04-15T04:12:55;10.00;99.90
31046;DHT22;17711;54.018;9.300;2023-04-15T04:16:12;10.00;99.90
31046;DHT22;17711;54.018;9.300;2023-04-15T04:19:13;10.00;99.90
31046;DHT22;17711;54.018;9.300;2023-04-15T04:22:34;10.00;99.90
31046;DHT22;17711;54.018;9.300;2023-04-15T04:25:56;10.00;99.90
31046;DHT22;17711;54.018;9.300;2023-04-15T04:29:09;10.00;99.90
31046;DHT22;17711;54.018;9.300;2023-04-15T04:32:21;10.00;99.90
31046;DHT22;17711;54.018;9.300;2023-04-15T04:35:41;10.00;99.90
31046;DHT22;17711;54.018;9.300;2023-04-15T04:38:35;10.00;99.90
31046;DHT22;17711;54.018;9.300;2023-04-15T04:42:01;10.10;99.90
31046;DHT22;17711;54.018;9.300;2023-04-15T04:45:02;10.00;99.90
31046;DHT22;17711;54.018;9.300;2023-04-15T04:48:14;10.10;99.90
31046;DHT22;17711;54.018;9.300;2023-04-15T04:51:14;10.10;99.90
31046;DHT22;17711;54.018;9.300;2023-04-15T04:54:27;10.10;99.90
31046;DHT22;17711;54.018;9.300;2023-04-15T04:57:31;10.10;99.90
31046;DHT22;17711;54.018;9.300;2023-04-15T05:00:43;10.20;99.90
31046;DHT22;17711;54.018;9.300;2023-04-15T05:03:54;10.10;99.90
31046;DHT22;17711;54.018;9.300;2023-04-15T05:07:06;10.10;99.90
31046;DHT22;17711;54.018;9.300;2023-04-15T05:10:13;10.10;99.90
31046;DHT22;17711;54.018;9.300;2023-04-15T05:13:33;10.10;99.90
31046;DHT22;17711;54.018;9.300;2023-04-15T05:16:38;10.20;99.90
31046;DHT22;17711;54.018;9.300;2023-04-15T05:19:54;10.20;99.90
31046;DHT22;17711;54.018;9.300;2023-04-15T05:23:01;10.20;99.90
31046;DHT22;17711;54.018;9.300;2023-04-15T05:30:00;10.30;99.90
31046;DHT22;17711;54.018;9.300;2023-04-15T05:33:28;10.40;99.90
31046;DHT22;17711;54.018;9.300;2023-04-15T05:36:45;10.30;99.90
31046;DHT22;17711;54.018;9.300;2023-04-15T05:39:59;10.30;99.90
31046;DHT22;17711;54.018;9.300;2023-04-15T05:47:11;10.30;99.90
31046;DHT22;17711;54.018;9.300;2023-04-15T05:50:25;10.30;99.90
31046;DHT22;17711;54.018;9.300;2023-04-15T05:53:41;10.30;99.90
31046;DHT22;17711;54.018;9.300;2023-04-15T05:56:42;10.40;99.90
31046;DHT22;17711;54.018;9.300;2023-04-15T05:59:59;10.40;99.90
31046;DHT22;17711;54.018;9.300;2023-04-15T06:03:17;10.40;99.90
31046;DHT22;17711;54.018;9.300;2023-04-15T06:05:48;10.50;99.90
31046;DHT22;17711;54.018;9.300;2023-04-15T06:08:17;10.60;99.90
31046;DHT22;17711;54.018;9.300;2023-04-15T06:10:49;10.60;99.90
31046;DHT22;17711;54.018;9.300;2023-04-15T06:13:19;10.60;99.90
31046;DHT22;17711;54.018;9.300;2023-04-15T06:15:51;10.70;99.90
31046;DHT22;17711;54.018;9.300;2023-04-15T06:18:22;10.80;99.90
31046;DHT22;17711;54.018;9.300;2023-04-15T06:20:52;10.80;99.90
31046;DHT22;17711;54.018;9.300;2023-04-15T06:23:23;10.80;99.90
31046;DHT22;17711;54.018;9.300;2023-04-15T06:25:54;10.80;99.90
31046;DHT22;17711;54.018;9.300;2023-04-15T06:28:28;10.90;99.90
31046;DHT22;17711;54.018;9.300;2023-04-15T06:30:58;10.90;99.90
31046;DHT22;17711;54.018;9.300;2023-04-15T06:33:31;10.90;99.90
31046;DHT22;17711;54.018;9.300;2023-04-15T06:36:00;11.00;99.90
31046;DHT22;17711;54.018;9.300;2023-04-15T06:38:29;11.00;99.90
31046;DHT22;17711;54.018;9.300;2023-04-15T06:41:02;11.10;99.90
31046;DHT22;17711;54.018;9.300;2023-04-15T06:43:35;11.10;99.90
31046;DHT22;17711;54.018;9.300;2023-04-15T06:46:03;11.10;99.90
31046;DHT22;17711;54.018;9.300;2023-04-15T06:48:33;11.10;99.90
31046;DHT22;17711;54.018;9.300;2023-04-15T06:51:02;11.10;99.90
31046;DHT22;17711;54.018;9.300;2023-04-15T06:53:31;11.10;99.90
31046;DHT22;17711;54.018;9.300;2023-04-15T06:55:59;11.10;99.90
31046;DHT22;17711;54.018;9.300;2023-04-15T06:58:28;11.10;99.90
31046;DHT22;17711;54.018;9.300;2023-04-15T07:00:56;11.10;99.90
31046;DHT22;17711;54.018;9.300;2023-04-15T07:03:25;11.10;99.90
31046;DHT22;17711;54.018;9.300;2023-04-15T07:06:00;11.10;99.90
31046;DHT22;17711;54.018;9.300;2023-04-15T07:08:32;11.10;99.90
31046;DHT22;17711;54.018;9.300;2023-04-15T07:11:01;11.10;99.90
31046;DHT22;17711;54.018;9.300;2023-04-15T07:13:30;11.10;99.90
31046;DHT22;17711;54.018;9.300;2023-04-15T07:15:59;11.10;99.90
31046;DHT22;17711;54.018;9.300;2023-04-15T07:18:27;11.10;99.90
31046;DHT22;17711;54.018;9.300;2023-04-15T07:20:56;11.20;99.90
31046;DHT22;17711;54.018;9.300;2023-04-15T07:23:26;11.20;99.90
31046;DHT22;17711;54.018;9.300;2023-04-15T07:25:54;11.20;99.90
31046;DHT22;17711;54.018;9.300;2023-04-15T07:28:23;11.30;99.90
31046;DHT22;17711;54.018;9.300;2023-04-15T07:30:52;11.30;99.90
31046;DHT22;17711;54.018;9.300;2023-04-15T07:33:20;11.30;99.90
31046;DHT22;17711;54.018;9.300;2023-04-15T07:35:49;11.30;99.90
31046;DHT22;17711;54.018;9.300;2023-04-15T07:38:18;11.40;99.90
31046;DHT22;17711;54.018;9.300;2023-04-15T07:40:48;11.40;99.90
31046;DHT22;17711;54.018;9.300;2023-04-15T07:43:16;11.40;99.90
31046;DHT22;17711;54.018;9.300;2023-04-15T07:45:47;11.30;99.90
31046;DHT22;17711;54.018;9.300;2023-04-15T07:48:16;11.30;99.90
31046;DHT22;17711;54.018;9.300;2023-04-15T07:50:45;11.30;99.90
31046;DHT22;17711;54.018;9.300;2023-04-15T07:53:15;11.20;99.90
31046;DHT22;17711;54.018;9.300;2023-04-15T07:55:44;11.10;99.90
31046;DHT22;17711;54.018;9.300;2023-04-15T07:58:17;11.10;99.90
31046;DHT22;17711;54.018;9.300;2023-04-15T08:00:46;11.10;99.90
31046;DHT22;17711;54.018;9.300;2023-04-15T08:03:15;11.10;99.90
31046;DHT22;17711;54.018;9.300;2023-04-15T08:05:51;11.10;99.90
31046;DHT22;17711;54.018;9.300;2023-04-15T08:08:26;11.10;99.90
31046;DHT22;17711;54.018;9.300;2023-04-15T08:10:55;11.10;99.90
31046;DHT22;17711;54.018;9.300;2023-04-15T08:13:30;11.10;99.90
31046;DHT22;17711;54.018;9.300;2023-04-15T08:16:14;11.10;99.90
31046;DHT22;17711;54.018;9.300;2023-04-15T08:18:44;11.00;99.90
31046;DHT22;17711;54.018;9.300;2023-04-15T08:21:14;11.00;99.90
31046;DHT22;17711;54.018;9.300;2023-04-15T08:23:46;11.10;99.90
31046;DHT22;17711;54.018;9.300;2023-04-15T08:26:15;11.10;99.90
31046;DHT22;17711;54.018;9.300;2023-04-15T08:28:48;11.20;99.90
31046;DHT22;17711;54.018;9.300;2023-04-15T08:31:18;11.20;99.90
31046;DHT22;17711;54.018;9.300;2023-04-15T08:33:48;11.20;99.90
31046;DHT22;17711;54.018;9.300;2023-04-15T08:36:21;11.30;99.90
31046;DHT22;17711;54.018;9.300;2023-04-15T08:38:56;11.30;99.90
31046;DHT22;17711;54.018;9.300;2023-04-15T08:41:36;11.40;99.90
31046;DHT22;17711;54.018;9.300;2023-04-15T08:44:08;11.40;99.90
31046;DHT22;17711;54.018;9.300;2023-04-15T08:46:38;11.50;99.90
31046;DHT22;17711;54.018;9.300;2023-04-15T08:49:12;11.50;99.90
31046;DHT22;17711;54.018;9.300;2023-04-15T08:51:50;11.50;99.90
31046;DHT22;17711;54.018;9.300;2023-04-15T08:54:19;11.60;99.90
31046;DHT22;17711;54.018;9.300;2023-04-15T08:56:47;11.50;99.90
31046;DHT22;17711;54.018;9.300;2023-04-15T08:59:43;11.50;99.90
31046;DHT22;17711;54.018;9.300;2023-04-15T09:02:15;11.50;99.90
31046;DHT22;17711;54.018;9.300;2023-04-15T09:04:45;11.50;99.90
31046;DHT22;17711;54.018;9.300;2023-04-15T09:07:18;11.40;99.90
31046;DHT22;17711;54.018;9.300;2023-04-15T09:09:54;11.30;99.90
31046;DHT22;17711;54.018;9.300;2023-04-15T09:12:22;11.30;99.90
31046;DHT22;17711;54.018;9.300;2023-04-15T09:14:53;11.30;99.90
31046;DHT22;17711;54.018;9.300;2023-04-15T09:17:22;11.30;99.90
31046;DHT22;17711;54.018;9.300;2023-04-15T09:20:07;11.30;99.90
31046;DHT22;17711;54.018;9.300;2023-04-15T09:22:35;11.30;99.90
31046;DHT22;17711;54.018;9.300;2023-04-15T09:25:24;11.30;99.90
31046;DHT22;17711;54.018;9.300;2023-04-15T09:27:55;11.30;99.90
31046;DHT22;17711;54.018;9.300;2023-04-15T09:30:27;11.30;99.90
31046;DHT22;17711;54.018;9.300;2023-04-15T09:32:57;11.40;99.90
31046;DHT22;17711;54.018;9.300;2023-04-15T09:35:32;11.30;99.90
31046;DHT22;17711;54.018;9.300;2023-04-15T09:38:04;11.30;99.90
31046;DHT22;17711;54.018;9.300;2023-04-15T09:40:39;11.40;99.90
31046;DHT22;17711;54.018;9.300;2023-04-15T09:43:12;11.30;99.90
31046;DHT22;17711;54.018;9.300;2023-04-15T09:45:49;11.30;99.90
31046;DHT22;17711;54.018;9.300;2023-04-15T09:48:20;11.40;99.90
31046;DHT22;17711;54.018;9.300;2023-04-15T09:50:49;11.50;99.90
31046;DHT22;17711;54.018;9.300;2023-04-15T09:53:20;11.60;99.90
31046;DHT22;17711;54.018;9.300;2023-04-15T09:55:51;11.60;99.90
31046;DHT22;17711;54.018;9.300;2023-04-15T09:58:21;11.60;99.90
31046;DHT22;17711;54.018;9.300;2023-04-15T10:00:53;11.60;99.90
31046;DHT22;17711;54.018;9.300;2023-04-15T10:03:24;11.70;99.90
31046;DHT22;17711;54.018;9.300;2023-04-15T10:05:56;11.80;99.90
31046;DHT22;17711;54.018;9.300;2023-04-15T10:08:27;12.00;99.90
31046;DHT22;17711;54.018;9.300;2023-04-15T10:10:57;12.10;99.90
31046;DHT22;17711;54.018;9.300;2023-04-15T10:13:28;12.30;99.90
31046;DHT22;17711;54.018;9.300;2023-04-15T10:16:04;12.50;99.90
31046;DHT22;17711;54.018;9.300;2023-04-15T10:18:37;12.90;99.90
31046;DHT22;17711;54.018;9.300;2023-04-15T10:21:06;13.20;99.90
31046;DHT22;17711;54.018;9.300;2023-04-15T10:23:37;13.40;99.90
31046;DHT22;17711;54.018;9.300;2023-04-15T10:26:07;13.50;99.90
31046;DHT22;17711;54.018;9.300;2023-04-15T10:28:38;13.50;99.90
31046;DHT22;17711;54.018;9.300;2023-04-15T10:31:11;13.60;99.90
31046;DHT22;17711;54.018;9.300;2023-04-15T10:33:41;13.80;99.90
31046;DHT22;17711;54.018;9.300;2023-04-15T10:36:11;13.90;99.90
31046;DHT22;17711;54.018;9.300;2023-04-15T10:38:41;14.00;99.90
31046;DHT22;17711;54.018;9.300;2023-04-15T10:45:08;14.30;99.90
31046;DHT22;17711;54.018;9.300;2023-04-15T10:48:52;14.60;99.90
31046;DHT22;17711;54.018;9.300;2023-04-15T10:51:45;15.10;99.90
31046;DHT22;17711;54.018;9.300;2023-04-15T10:55:11;15.40;99.90
31046;DHT22;17711;54.018;9.300;2023-04-15T11:02:11;16.20;99.90
31046;DHT22;17711;54.018;9.300;2023-04-15T11:06:06;16.70;99.90
31046;DHT22;17711;54.018;9.300;2023-04-15T11:09:39;17.60;99.90
31046;DHT22;17711;54.018;9.300;2023-04-15T11:12:57;18.80;99.90
31046;DHT22;17711;54.018;9.300;2023-04-15T11:16:13;19.80;99.90
31046;DHT22;17711;54.018;9.300;2023-04-15T11:26:41;22.80;99.90
31046;DHT22;17711;54.018;9.300;2023-04-15T11:29:59;23.30;99.90
31046;DHT22;17711;54.018;9.300;2023-04-15T11:33:11;24.10;99.90
31046;DHT22;17711;54.018;9.300;2023-04-15T11:36:31;24.60;99.90
31046;DHT22;17711;54.018;9.300;2023-04-15T11:39:48;24.80;99.90
31046;DHT22;17711;54.018;9.300;2023-04-15T11:43:45;24.80;99.90
31046;DHT22;17711;54.018;9.300;2023-04-15T11:47:19;24.40;99.90
31046;DHT22;17711;54.018;9.300;2023-04-15T11:50:51;23.70;96.00
31046;DHT22;17711;54.018;9.300;2023-04-15T11:54:04;23.00;99.90
31046;DHT22;17711;54.018;9.300;2023-04-15T11:57:40;23.20;99.90
31046;DHT22;17711;54.018;9.300;2023-04-15T12:08:13;22.30;99.90
31046;DHT22;17711;54.018;9.300;2023-04-15T12:11:47;22.60;99.90
31046;DHT22;17711;54.018;9.300;2023-04-15T12:15:08;21.30;99.90
31046;DHT22;17711;54.018;9.300;2023-04-15T12:18:29;21.20;99.90
31046;DHT22;17711;54.018;9.300;2023-04-15T12:21:51;20.90;99.90
31046;DHT22;17711;54.018;9.300;2023-04-15T12:25:24;21.00;99.90
31046;DHT22;17711;54.018;9.300;2023-04-15T12:28:47;20.70;99.90
31046;DHT22;17711;54.018;9.300;2023-04-15T12:32:10;20.10;99.90
31046;DHT22;17711;54.018;9.300;2023-04-15T12:35:23;19.30;99.90
31046;DHT22;17711;54.018;9.300;2023-04-15T12:38:48;18.70;99.90
31046;DHT22;17711;54.018;9.300;2023-04-15T12:45:38;20.10;99.90
31046;DHT22;17711;54.018;9.300;2023-04-15T12:48:45;19.80;99.90
31046;DHT22;17711;54.018;9.300;2023-04-15T12:52:05;19.80;99.90
31046;DHT22;17711;54.018;9.300;2023-04-15T12:55:20;19.30;99.90
31046;DHT22;17711;54.018;9.300;2023-04-15T12:58:41;18.70;99.90
31046;DHT22;17711;54.018;9.300;2023-04-15T13:01:55;19.80;99.90
31046;DHT22;17711;54.018;9.300;2023-04-15T13:05:24;21.30;99.90
31046;DHT22;17711;54.018;9.300;2023-04-15T13:08:49;20.90;99.90
31046;DHT22;17711;54.018;9.300;2023-04-15T13:12:17;20.40;99.90
31046;DHT22;17711;54.018;9.300;2023-04-15T13:15:40;19.80;99.90
31046;DHT22;17711;54.018;9.300;2023-04-15T13:30:04;20.50;99.90
31046;DHT22;17711;54.018;9.300;2023-04-15T13:33:43;20.40;99.90
31046;DHT22;17711;54.018;9.300;2023-04-15T13:37:07;19.90;99.90
31046;DHT22;17711;54.018;9.300;2023-04-15T13:40:38;19.40;99.90
31046;DHT22;17711;54.018;9.300;2023-04-15T13:43:51;18.90;99.90
31046;DHT22;17711;54.018;9.300;2023-04-15T14:05:25;17.30;99.90
31046;DHT22;17711;54.018;9.300;2023-04-15T14:09:00;17.30;99.90
31046;DHT22;17711;54.018;9.300;2023-04-15T14:12:20;16.90;99.90
31046;DHT22;17711;54.018;9.300;2023-04-15T14:16:11;16.70;99.90
31046;DHT22;17711;54.018;9.300;2023-04-15T14:19:37;16.60;99.90
31046;DHT22;17711;54.018;9.300;2023-04-15T14:41:23;16.00;99.90
31046;DHT22;17711;54.018;9.300;2023-04-15T14:44:50;16.00;99.90
31046;DHT22;17711;54.018;9.300;2023-04-15T14:48:02;16.40;99.90
31046;DHT22;17711;54.018;9.300;2023-04-15T14:51:37;16.50;99.90
31046;DHT22;17711;54.018;9.300;2023-04-15T14:54:52;16.40;99.90
31046;DHT22;17711;54.018;9.300;2023-04-15T15:01:51;16.20;99.90
31046;DHT22;17711;54.018;9.300;2023-04-15T15:05:22;16.20;99.90
31046;DHT22;17711;54.018;9.300;2023-04-15T15:08:36;16.30;99.90
31046;DHT22;17711;54.018;9.300;2023-04-15T15:12:03;16.30;99.90
31046;DHT22;17711;54.018;9.300;2023-04-15T15:15:26;16.70;99.90
31046;DHT22;17711;54.018;9.300;2023-04-15T15:26:12;16.70;99.90
31046;DHT22;17711;54.018;9.300;2023-04-15T15:33:35;17.10;99.90
31046;DHT22;17711;54.018;9.300;2023-04-15T15:36:45;17.80;99.90
31046;DHT22;17711;54.018;9.300;2023-04-15T15:40:05;17.70;99.90
31046;DHT22;17711;54.018;9.300;2023-04-15T15:43:21;17.00;99.90
31046;DHT22;17711;54.018;9.300;2023-04-15T15:46:25;16.60;99.90
31046;DHT22;17711;54.018;9.300;2023-04-15T15:49:59;16.20;99.90
31046;DHT22;17711;54.018;9.300;2023-04-15T15:53:19;16.00;99.90
31046;DHT22;17711;54.018;9.300;2023-04-15T15:56:30;15.90;99.90
31046;DHT22;17711;54.018;9.300;2023-04-15T16:00:07;15.80;99.90
31046;DHT22;17711;54.018;9.300;2023-04-15T16:03:06;15.80;99.90
31046;DHT22;17711;54.018;9.300;2023-04-15T16:06:23;15.60;99.90
31046;DHT22;17711;54.018;9.300;2023-04-15T16:09:33;15.30;99.90
31046;DHT22;17711;54.018;9.300;2023-04-15T16:12:51;15.20;99.90
31046;DHT22;17711;54.018;9.300;2023-04-15T16:16:01;15.20;99.90
31046;DHT22;17711;54.018;9.300;2023-04-15T16:19:16;15.00;99.90
31046;DHT22;17711;54.018;9.300;2023-04-15T16:22:30;15.00;99.90
31046;DHT22;17711;54.018;9.300;2023-04-15T16:25:53;15.00;99.90
31046;DHT22;17711;54.018;9.300;2023-04-15T16:29:10;14.90;99.90
31046;DHT22;17711;54.018;9.300;2023-04-15T16:32:47;14.80;99.90
31046;DHT22;17711;54.018;9.300;2023-04-15T16:36:00;14.80;99.90
31046;DHT22;17711;54.018;9.300;2023-04-15T16:39:21;14.70;99.90
31046;DHT22;17711;54.018;9.300;2023-04-15T16:42:28;14.80;99.90
31046;DHT22;17711;54.018;9.300;2023-04-15T16:45:38;14.80;99.90
31046;DHT22;17711;54.018;9.300;2023-04-15T16:52:51;14.60;99.90
31046;DHT22;17711;54.018;9.300;2023-04-15T16:56:00;14.40;99.90
31046;DHT22;17711;54.018;9.300;2023-04-15T16:59:27;14.40;99.90
31046;DHT22;17711;54.018;9.300;2023-04-15T17:02:55;14.30;99.90
31046;DHT22;17711;54.018;9.300;2023-04-15T17:06:21;14.30;99.90
31046;DHT22;17711;54.018;9.300;2023-04-15T17:09:47;14.20;99.90
31046;DHT22;17711;54.018;9.300;2023-04-15T17:13:02;14.20;99.90
31046;DHT22;17711;54.018;9.300;2023-04-15T17:16:13;14.10;99.90
31046;DHT22;17711;54.018;9.300;2023-04-15T17:19:35;14.10;99.90
31046;DHT22;17711;54.018;9.300;2023-04-15T17:22:42;13.80;99.90
31046;DHT22;17711;54.018;9.300;2023-04-15T17:33:14;13.60;99.90
31046;DHT22;17711;54.018;9.300;2023-04-15T17:36:37;13.50;99.90
31046;DHT22;17711;54.018;9.300;2023-04-15T17:40:01;13.50;99.90
31046;DHT22;17711;54.018;9.300;2023-04-15T17:43:28;13.50;99.90
31046;DHT22;17711;54.018;9.300;2023-04-15T17:47:00;13.40;99.90
31046;DHT22;17711;54.018;9.300;2023-04-15T17:50:12;13.40;99.90
31046;DHT22;17711;54.018;9.300;2023-04-15T17:53:19;13.30;99.90
31046;DHT22;17711;54.018;9.300;2023-04-15T17:56:22;13.20;99.90
31046;DHT22;17711;54.018;9.300;2023-04-15T17:59:46;13.10;99.90
31046;DHT22;17711;54.018;9.300;2023-04-15T18:03:07;12.90;99.90
31046;DHT22;17711;54.018;9.300;2023-04-15T18:06:30;12.80;99.90
31046;DHT22;17711;54.018;9.300;2023-04-15T18:09:44;12.90;99.90
31046;DHT22;17711;54.018;9.300;2023-04-15T18:13:01;12.90;99.90
31046;DHT22;17711;54.018;9.300;2023-04-15T18:16:06;12.90;99.90
31046;DHT22;17711;54.018;9.300;2023-04-15T18:19:19;12.90;99.90
31046;DHT22;17711;54.018;9.300;2023-04-15T18:22:29;12.90;99.90
31046;DHT22;17711;54.018;9.300;2023-04-15T18:25:40;12.80;99.90
31046;DHT22;17711;54.018;9.300;2023-04-15T18:28:42;12.70;99.90
31046;DHT22;17711;54.018;9.300;2023-04-15T18:31:56;12.60;99.90
31046;DHT22;17711;54.018;9.300;2023-04-15T18:35:10;12.50;99.90
31046;DHT22;17711;54.018;9.300;2023-04-15T18:38:34;12.50;99.90
31046;DHT22;17711;54.018;9.300;2023-04-15T18:41:33;12.50;99.90
31046;DHT22;17711;54.018;9.300;2023-04-15T18:44:45;12.40;99.90
31046;DHT22;17711;54.018;9.300;2023-04-15T18:47:51;12.30;99.90
31046;DHT22;17711;54.018;9.300;2023-04-15T18:54:42;12.20;99.90
31046;DHT22;17711;54.018;9.300;2023-04-15T18:57:55;12.10;99.90
31046;DHT22;17711;54.018;9.300;2023-04-15T19:01:00;12.00;99.90
31046;DHT22;17711;54.018;9.300;2023-04-15T19:04:24;12.00;99.90
31046;DHT22;17711;54.018;9.300;2023-04-15T19:07:34;12.00;99.90
31046;DHT22;17711;54.018;9.300;2023-04-15T19:11:02;11.90;99.90
31046;DHT22;17711;54.018;9.300;2023-04-15T19:14:03;11.80;99.90
31046;DHT22;17711;54.018;9.300;2023-04-15T19:17:15;11.80;99.90
31046;DHT22;17711;54.018;9.300;2023-04-15T19:20:40;11.70;99.90
31046;DHT22;17711;54.018;9.300;2023-04-15T19:24:11;11.60;99.90
31046;DHT22;17711;54.018;9.300;2023-04-15T19:35:55;11.30;99.90
31046;DHT22;17711;54.018;9.300;2023-04-15T19:39:15;11.30;99.90
31046;DHT22;17711;54.018;9.300;2023-04-15T19:42:47;11.30;99.90
31046;DHT22;17711;54.018;9.300;2023-04-15T19:45:59;11.30;99.90
31046;DHT22;17711;54.018;9.300;2023-04-15T19:49:05;11.30;99.90
31046;DHT22;17711;54.018;9.300;2023-04-15T19:52:12;11.30;99.90
31046;DHT22;17711;54.018;9.300;2023-04-15T19:55:24;11.30;99.90
31046;DHT22;17711;54.018;9.300;2023-04-15T19:58:24;11.30;99.90
31046;DHT22;17711;54.018;9.300;2023-04-15T20:01:39;11.30;99.90
31046;DHT22;17711;54.018;9.300;2023-04-15T20:04:47;11.30;99.90
31046;DHT22;17711;54.018;9.300;2023-04-15T20:07:55;11.30;99.90
31046;DHT22;17711;54.018;9.300;2023-04-15T20:10:52;11.30;99.90
31046;DHT22;17711;54.018;9.300;2023-04-15T20:14:02;11.30;99.90
31046;DHT22;17711;54.018;9.300;2023-04-15T20:17:01;11.30;99.90
31046;DHT22;17711;54.018;9.300;2023-04-15T20:20:16;11.30;99.90
31046;DHT22;17711;54.018;9.300;2023-04-15T20:23:21;11.30;99.90
31046;DHT22;17711;54.018;9.300;2023-04-15T20:26:26;11.20;99.90
31046;DHT22;17711;54.018;9.300;2023-04-15T20:29:32;11.20;99.90
31046;DHT22;17711;54.018;9.300;2023-04-15T20:32:51;11.20;99.90
31046;DHT22;17711;54.018;9.300;2023-04-15T20:36:02;11.10;99.90
31046;DHT22;17711;54.018;9.300;2023-04-15T20:39:41;11.10;99.90
31046;DHT22;17711;54.018;9.300;2023-04-15T20:42:43;11.10;99.90
31046;DHT22;17711;54.018;9.300;2023-04-15T20:45:53;11.00;99.90
31046;DHT22;17711;54.018;9.300;2023-04-15T20:48:59;11.00;99.90
31046;DHT22;17711;54.018;9.300;2023-04-15T20:52:18;11.00;99.90
31046;DHT22;17711;54.018;9.300;2023-04-15T20:55:29;10.90;99.90
31046;DHT22;17711;54.018;9.300;2023-04-15T20:58:44;10.90;99.90
31046;DHT22;17711;54.018;9.300;2023-04-15T21:01:43;10.90;99.90
31046;DHT22;17711;54.018;9.300;2023-04-15T21:05:02;10.90;99.90